sensor_id;sensor_type;location;lat;lon;timestamp;temperature;humidity
33803;DHT22;20110;53.120;5.786;2022-12-29T00:02:16;8.00;99.90
33803;DHT22;20110;53.120;5.786;2022-12-29T00:04:42;8.00;99.90
33803;DHT22;20110;53.120;5.786;2022-12-29T00:07:10;8.10;99.90
33803;DHT22;20110;53.120;5.786;2022-12-29T00:09:36;8.10;99.90
33803;DHT22;20110;53.120;5.786;2022-12-29T00:12:03;8.10;99.90
33803;DHT22;20110;53.120;5.786;2022-12-29T00:14:30;8.20;99.90
33803;DHT22;20110;53.120;5.786;2022-12-29T00:17:14;8.10;99.90
33803;DHT22;20110;53.120;5.786;2022-12-29T00:19:40;8.20;99.90
33803;DHT22;20110;53.120;5.786;2022-12-29T00:22:25;8.30;99.90
33803;DHT22;20110;53.120;5.786;2022-12-29T00:25:12;8.30;99.90
33803;DHT22;20110;53.120;5.786;2022-12-29T00:27:57;8.30;99.90
33803;DHT22;20110;53.120;5.786;2022-12-29T00:30:42;8.30;99.90
33803;DHT22;20110;53.120;5.786;2022-12-29T00:33:44;8.30;99.90
33803;DHT22;20110;53.120;5.786;2022-12-29T00:36:34;8.30;99.90
33803;DHT22;20110;53.120;5.786;2022-12-29T00:39:09;8.30;99.90
33803;DHT22;20110;53.120;5.786;2022-12-29T00:41:56;8.30;99.90
33803;DHT22;20110;53.120;5.786;2022-12-29T00:44:47;8.30;99.90
33803;DHT22;20110;53.120;5.786;2022-12-29T00:47:13;8.30;99.90
33803;DHT22;20110;53.120;5.786;2022-12-29T00:49:39;8.30;99.90
33803;DHT22;20110;53.120;5.786;2022-12-29T00:52:07;8.30;99.90
33803;DHT22;20110;53.120;5.786;2022-12-29T00:54:38;8.30;99.90
33803;DHT22;20110;53.120;5.786;2022-12-29T00:57:06;8.40;99.90
33803;DHT22;20110;53.120;5.786;2022-12-29T00:59:35;8.30;99.90
33803;DHT22;20110;53.120;5.786;2022-12-29T01:02:05;8.40;99.90
33803;DHT22;20110;53.120;5.786;2022-12-29T01:04:32;8.40;99.90
33803;DHT22;20110;53.120;5.786;2022-12-29T01:06:58;8.40;99.90
33803;DHT22;20110;53.120;5.786;2022-12-29T01:09:24;8.40;99.90
33803;DHT22;20110;53.120;5.786;2022-12-29T01:12:09;8.50;99.90
33803;DHT22;20110;53.120;5.786;2022-12-29T01:14:38;8.50;99.90
33803;DHT22;20110;53.120;5.786;2022-12-29T01:17:04;8.40;99.90
33803;DHT22;20110;53.120;5.786;2022-12-29T01:19:31;8.50;99.90
33803;DHT22;20110;53.120;5.786;2022-12-29T01:21:57;8.60;99.90
33803;DHT22;20110;53.120;5.786;2022-12-29T01:24:23;8.60;99.90
33803;DHT22;20110;53.120;5.786;2022-12-29T01:26:50;8.60;99.90
33803;DHT22;20110;53.120;5.786;2022-12-29T01:29:16;8.60;99.90
33803;DHT22;20110;53.120;5.786;2022-12-29T01:31:42;8.60;99.90
33803;DHT22;20110;53.120;5.786;2022-12-29T01:34:08;8.60;99.90
33803;DHT22;20110;53.120;5.786;2022-12-29T01:36:34;8.50;99.90
33803;DHT22;20110;53.120;5.786;2022-12-29T01:39:01;8.40;99.90
33803;DHT22;20110;53.120;5.786;2022-12-29T01:41:27;8.40;99.90
33803;DHT22;20110;53.120;5.786;2022-12-29T01:43:58;8.40;99.90
33803;DHT22;20110;53.120;5.786;2022-12-29T01:51:57;8.30;99.90
33803;DHT22;20110;53.120;5.786;2022-12-29T01:54:31;8.30;99.90
33803;DHT22;20110;53.120;5.786;2022-12-29T01:57:03;8.20;99.90
33803;DHT22;20110;53.120;5.786;2022-12-29T01:59:38;8.20;99.90
33803;DHT22;20110;53.120;5.786;2022-12-29T02:02:11;8.30;99.90
33803;DHT22;20110;53.120;5.786;2022-12-29T02:04:40;8.20;99.90
33803;DHT22;20110;53.120;5.786;2022-12-29T02:07:18;8.20;99.90
33803;DHT22;20110;53.120;5.786;2022-12-29T02:09:50;8.20;99.90
33803;DHT22;20110;53.120;5.786;2022-12-29T02:12:19;8.30;99.90
33803;DHT22;20110;53.120;5.786;2022-12-29T02:14:47;8.30;99.90
33803;DHT22;20110;53.120;5.786;2022-12-29T02:23:52;8.20;99.90
33803;DHT22;20110;53.120;5.786;2022-12-29T02:27:04;8.20;99.90
33803;DHT22;20110;53.120;5.786;2022-12-29T02:30:07;8.20;99.90
33803;DHT22;20110;53.120;5.786;2022-12-29T02:39:22;8.00;99.90
33803;DHT22;20110;53.120;5.786;2022-12-29T02:45:48;8.10;99.90
33803;DHT22;20110;53.120;5.786;2022-12-29T02:48:28;8.00;99.90
33803;DHT22;20110;53.120;5.786;2022-12-29T02:51:08;7.90;99.90
33803;DHT22;20110;53.120;5.786;2022-12-29T02:53:39;7.80;99.90
33803;DHT22;20110;53.120;5.786;2022-12-29T02:56:24;7.80;99.90
33803;DHT22;20110;53.120;5.786;2022-12-29T02:58:50;7.70;99.90
33803;DHT22;20110;53.120;5.786;2022-12-29T03:15:34;7.60;99.90
33803;DHT22;20110;53.120;5.786;2022-12-29T03:18:55;7.70;99.90
33803;DHT22;20110;53.120;5.786;2022-12-29T03:21:38;7.80;99.90
33803;DHT22;20110;53.120;5.786;2022-12-29T03:24:30;7.70;99.90
33803;DHT22;20110;53.120;5.786;2022-12-29T03:27:02;7.80;99.90
33803;DHT22;20110;53.120;5.786;2022-12-29T03:29:37;7.80;99.90
33803;DHT22;20110;53.120;5.786;2022-12-29T03:32:08;7.80;99.90
33803;DHT22;20110;53.120;5.786;2022-12-29T03:34:37;7.80;99.90
33803;DHT22;20110;53.120;5.786;2022-12-29T03:37:13;7.80;99.90
33803;DHT22;20110;53.120;5.786;2022-12-29T03:39:42;7.80;99.90
33803;DHT22;20110;53.120;5.786;2022-12-29T03:42:13;7.70;99.90
33803;DHT22;20110;53.120;5.786;2022-12-29T03:44:44;7.60;99.90
33803;DHT22;20110;53.120;5.786;2022-12-29T03:47:11;7.80;99.90
33803;DHT22;20110;53.120;5.786;2022-12-29T03:49:39;7.80;99.90
33803;DHT22;20110;53.120;5.786;2022-12-29T03:52:05;7.80;99.90
33803;DHT22;20110;53.120;5.786;2022-12-29T03:54:32;7.70;99.90
33803;DHT22;20110;53.120;5.786;2022-12-29T03:56:58;7.60;99.90
33803;DHT22;20110;53.120;5.786;2022-12-29T03:59:24;7.50;99.90
33803;DHT22;20110;53.120;5.786;2022-12-29T04:01:50;7.50;99.90
33803;DHT22;20110;53.120;5.786;2022-12-29T04:04:15;7.50;99.90
33803;DHT22;20110;53.120;5.786;2022-12-29T04:06:41;7.40;99.90
33803;DHT22;20110;53.120;5.786;2022-12-29T04:09:09;7.30;99.90
33803;DHT22;20110;53.120;5.786;2022-12-29T04:11:35;7.40;99.90
33803;DHT22;20110;53.120;5.786;2022-12-29T04:14:01;7.50;99.90
33803;DHT22;20110;53.120;5.786;2022-12-29T04:16:27;7.40;99.90
33803;DHT22;20110;53.120;5.786;2022-12-29T04:18:52;7.50;99.90
33803;DHT22;20110;53.120;5.786;2022-12-29T04:21:18;7.40;99.90
33803;DHT22;20110;53.120;5.786;2022-12-29T04:23:44;7.60;99.90
33803;DHT22;20110;53.120;5.786;2022-12-29T04:26:11;7.50;99.90
33803;DHT22;20110;53.120;5.786;2022-12-29T04:28:38;7.50;99.90
33803;DHT22;20110;53.120;5.786;2022-12-29T04:31:04;7.50;99.90
33803;DHT22;20110;53.120;5.786;2022-12-29T04:33:30;7.70;99.90
33803;DHT22;20110;53.120;5.786;2022-12-29T04:35:56;7.70;99.90
33803;DHT22;20110;53.120;5.786;2022-12-29T04:38:23;7.90;99.90
33803;DHT22;20110;53.120;5.786;2022-12-29T04:40:50;7.80;99.90
33803;DHT22;20110;53.120;5.786;2022-12-29T04:43:17;7.80;99.90
33803;DHT22;20110;53.120;5.786;2022-12-29T04:45:45;7.80;99.90
33803;DHT22;20110;53.120;5.786;2022-12-29T04:48:12;7.70;99.90
33803;DHT22;20110;53.120;5.786;2022-12-29T04:50:40;7.70;99.90
33803;DHT22;20110;53.120;5.786;2022-12-29T04:53:06;7.80;99.90
33803;DHT22;20110;53.120;5.786;2022-12-29T04:55:32;7.90;99.90
33803;DHT22;20110;53.120;5.786;2022-12-29T04:57:59;7.90;99.90
33803;DHT22;20110;53.120;5.786;2022-12-29T05:00:25;8.00;99.90
33803;DHT22;20110;53.120;5.786;2022-12-29T05:02:51;8.00;99.90
33803;DHT22;20110;53.120;5.786;2022-12-29T05:05:17;7.90;99.90
33803;DHT22;20110;53.120;5.786;2022-12-29T05:07:43;7.80;99.90
33803;DHT22;20110;53.120;5.786;2022-12-29T05:10:10;7.90;99.90
33803;DHT22;20110;53.120;5.786;2022-12-29T05:12:37;8.00;99.90
33803;DHT22;20110;53.120;5.786;2022-12-29T05:15:05;8.00;99.90
33803;DHT22;20110;53.120;5.786;2022-12-29T05:17:32;8.00;99.90
33803;DHT22;20110;53.120;5.786;2022-12-29T05:19:58;7.90;99.90
33803;DHT22;20110;53.120;5.786;2022-12-29T05:22:25;7.80;99.90
33803;DHT22;20110;53.120;5.786;2022-12-29T05:24:51;7.90;99.90
33803;DHT22;20110;53.120;5.786;2022-12-29T05:27:17;7.90;99.90
33803;DHT22;20110;53.120;5.786;2022-12-29T05:29:42;7.90;99.90
33803;DHT22;20110;53.120;5.786;2022-12-29T05:32:08;7.90;99.90
33803;DHT22;20110;53.120;5.786;2022-12-29T05:34:34;7.90;99.90
33803;DHT22;20110;53.120;5.786;2022-12-29T05:37:00;7.80;99.90
33803;DHT22;20110;53.120;5.786;2022-12-29T05:39:27;7.90;99.90
33803;DHT22;20110;53.120;5.786;2022-12-29T05:41:54;7.90;99.90
33803;DHT22;20110;53.120;5.786;2022-12-29T05:44:20;8.00;99.90
33803;DHT22;20110;53.120;5.786;2022-12-29T05:46:46;7.90;99.90
33803;DHT22;20110;53.120;5.786;2022-12-29T05:49:12;7.90;99.90
33803;DHT22;20110;53.120;5.786;2022-12-29T05:51:38;8.00;99.90
33803;DHT22;20110;53.120;5.786;2022-12-29T05:54:03;8.00;99.90
33803;DHT22;20110;53.120;5.786;2022-12-29T05:56:29;8.00;99.90
33803;DHT22;20110;53.120;5.786;2022-12-29T05:58:55;7.90;99.90
33803;DHT22;20110;53.120;5.786;2022-12-29T06:01:21;7.90;99.90
33803;DHT22;20110;53.120;5.786;2022-12-29T06:03:47;7.90;99.90
33803;DHT22;20110;53.120;5.786;2022-12-29T06:06:12;7.90;99.90
33803;DHT22;20110;53.120;5.786;2022-12-29T06:08:38;7.90;99.90
33803;DHT22;20110;53.120;5.786;2022-12-29T06:11:04;7.80;99.90
33803;DHT22;20110;53.120;5.786;2022-12-29T06:13:30;7.80;99.90
33803;DHT22;20110;53.120;5.786;2022-12-29T06:15:56;8.00;99.90
33803;DHT22;20110;53.120;5.786;2022-12-29T06:18:24;7.90;99.90
33803;DHT22;20110;53.120;5.786;2022-12-29T06:20:50;7.90;99.90
33803;DHT22;20110;53.120;5.786;2022-12-29T06:23:16;7.80;99.90
33803;DHT22;20110;53.120;5.786;2022-12-29T06:25:44;7.90;99.90
33803;DHT22;20110;53.120;5.786;2022-12-29T06:28:10;7.80;99.90
33803;DHT22;20110;53.120;5.786;2022-12-29T06:30:36;7.80;99.90
33803;DHT22;20110;53.120;5.786;2022-12-29T06:33:02;7.80;99.90
33803;DHT22;20110;53.120;5.786;2022-12-29T06:35:28;7.70;99.90
33803;DHT22;20110;53.120;5.786;2022-12-29T06:37:54;7.80;99.90
33803;DHT22;20110;53.120;5.786;2022-12-29T06:40:19;7.80;99.90
33803;DHT22;20110;53.120;5.786;2022-12-29T06:42:46;7.90;99.90
33803;DHT22;20110;53.120;5.786;2022-12-29T06:45:12;7.80;99.90
33803;DHT22;20110;53.120;5.786;2022-12-29T06:47:38;7.90;99.90
33803;DHT22;20110;53.120;5.786;2022-12-29T06:50:04;7.90;99.90
33803;DHT22;20110;53.120;5.786;2022-12-29T06:52:30;7.90;99.90
33803;DHT22;20110;53.120;5.786;2022-12-29T06:54:56;7.80;99.90
33803;DHT22;20110;53.120;5.786;2022-12-29T06:57:22;7.70;99.90
33803;DHT22;20110;53.120;5.786;2022-12-29T06:59:48;7.80;99.90
33803;DHT22;20110;53.120;5.786;2022-12-29T07:02:14;7.80;99.90
33803;DHT22;20110;53.120;5.786;2022-12-29T07:04:42;7.90;99.90
33803;DHT22;20110;53.120;5.786;2022-12-29T07:07:07;7.90;99.90
33803;DHT22;20110;53.120;5.786;2022-12-29T07:09:33;7.90;99.90
33803;DHT22;20110;53.120;5.786;2022-12-29T07:11:59;8.10;99.90
33803;DHT22;20110;53.120;5.786;2022-12-29T07:14:25;8.20;85.70
33803;DHT22;20110;53.120;5.786;2022-12-29T07:16:50;8.20;69.40
33803;DHT22;20110;53.120;5.786;2022-12-29T07:19:16;8.10;93.00
33803;DHT22;20110;53.120;5.786;2022-12-29T07:21:42;8.00;99.90
33803;DHT22;20110;53.120;5.786;2022-12-29T07:24:09;8.10;14.60
33803;DHT22;20110;53.120;5.786;2022-12-29T07:26:34;8.10;99.90
33803;DHT22;20110;53.120;5.786;2022-12-29T07:29:02;8.10;99.90
33803;DHT22;20110;53.120;5.786;2022-12-29T07:31:29;8.10;97.00
33803;DHT22;20110;53.120;5.786;2022-12-29T07:33:54;8.10;59.00
33803;DHT22;20110;53.120;5.786;2022-12-29T07:36:20;8.20;7.30
33803;DHT22;20110;53.120;5.786;2022-12-29T07:38:46;8.30;1.00
33803;DHT22;20110;53.120;5.786;2022-12-29T07:41:12;8.20;1.00
33803;DHT22;20110;53.120;5.786;2022-12-29T07:43:38;8.20;1.00
33803;DHT22;20110;53.120;5.786;2022-12-29T07:46:04;8.30;1.00
33803;DHT22;20110;53.120;5.786;2022-12-29T07:48:30;8.20;1.00
33803;DHT22;20110;53.120;5.786;2022-12-29T07:50:56;8.20;1.00
33803;DHT22;20110;53.120;5.786;2022-12-29T07:53:21;8.10;82.50
33803;DHT22;20110;53.120;5.786;2022-12-29T07:55:48;8.20;35.70
33803;DHT22;20110;53.120;5.786;2022-12-29T07:58:13;8.10;53.80
33803;DHT22;20110;53.120;5.786;2022-12-29T08:00:39;8.20;25.70
33803;DHT22;20110;53.120;5.786;2022-12-29T08:03:14;8.20;16.70
33803;DHT22;20110;53.120;5.786;2022-12-29T08:05:39;8.10;12.30
33803;DHT22;20110;53.120;5.786;2022-12-29T08:08:05;8.20;1.00
33803;DHT22;20110;53.120;5.786;2022-12-29T08:10:31;8.10;1.00
33803;DHT22;20110;53.120;5.786;2022-12-29T08:12:57;8.10;1.00
33803;DHT22;20110;53.120;5.786;2022-12-29T08:15:23;8.10;1.00
33803;DHT22;20110;53.120;5.786;2022-12-29T08:17:49;8.10;1.00
33803;DHT22;20110;53.120;5.786;2022-12-29T08:20:15;8.10;1.00
33803;DHT22;20110;53.120;5.786;2022-12-29T08:22:40;8.10;1.00
33803;DHT22;20110;53.120;5.786;2022-12-29T08:25:07;8.10;1.00
33803;DHT22;20110;53.120;5.786;2022-12-29T08:27:33;8.10;1.00
33803;DHT22;20110;53.120;5.786;2022-12-29T08:29:59;8.10;1.00
33803;DHT22;20110;53.120;5.786;2022-12-29T08:32:26;8.10;1.00
33803;DHT22;20110;53.120;5.786;2022-12-29T08:34:54;8.10;1.00
33803;DHT22;20110;53.120;5.786;2022-12-29T08:37:20;8.00;1.00
33803;DHT22;20110;53.120;5.786;2022-12-29T08:39:46;7.90;13.80
33803;DHT22;20110;53.120;5.786;2022-12-29T08:42:11;7.90;38.00
33803;DHT22;20110;53.120;5.786;2022-12-29T08:44:37;7.80;79.60
33803;DHT22;20110;53.120;5.786;2022-12-29T08:47:03;7.60;99.90
33803;DHT22;20110;53.120;5.786;2022-12-29T08:49:29;7.50;99.90
33803;DHT22;20110;53.120;5.786;2022-12-29T08:51:55;7.50;99.90
33803;DHT22;20110;53.120;5.786;2022-12-29T08:54:20;7.50;99.90
33803;DHT22;20110;53.120;5.786;2022-12-29T08:56:46;7.50;99.90
33803;DHT22;20110;53.120;5.786;2022-12-29T08:59:12;7.60;99.90
33803;DHT22;20110;53.120;5.786;2022-12-29T09:01:38;7.70;99.90
33803;DHT22;20110;53.120;5.786;2022-12-29T09:04:06;7.80;99.90
33803;DHT22;20110;53.120;5.786;2022-12-29T09:06:32;7.90;99.90
33803;DHT22;20110;53.120;5.786;2022-12-29T09:08:59;8.00;99.90
33803;DHT22;20110;53.120;5.786;2022-12-29T09:11:25;8.20;99.90
33803;DHT22;20110;53.120;5.786;2022-12-29T09:13:52;8.10;99.90
33803;DHT22;20110;53.120;5.786;2022-12-29T09:16:22;8.10;99.90
33803;DHT22;20110;53.120;5.786;2022-12-29T09:18:49;8.10;99.90
33803;DHT22;20110;53.120;5.786;2022-12-29T09:21:15;8.10;99.90
33803;DHT22;20110;53.120;5.786;2022-12-29T09:23:41;8.00;99.90
33803;DHT22;20110;53.120;5.786;2022-12-29T09:26:07;8.00;99.90
33803;DHT22;20110;53.120;5.786;2022-12-29T09:28:34;7.90;99.90
33803;DHT22;20110;53.120;5.786;2022-12-29T09:31:00;7.70;99.90
33803;DHT22;20110;53.120;5.786;2022-12-29T09:33:27;7.60;99.90
33803;DHT22;20110;53.120;5.786;2022-12-29T09:35:55;7.60;99.90
33803;DHT22;20110;53.120;5.786;2022-12-29T09:38:23;7.50;99.90
33803;DHT22;20110;53.120;5.786;2022-12-29T09:41:10;7.40;99.90
33803;DHT22;20110;53.120;5.786;2022-12-29T09:46:29;7.10;99.90
33803;DHT22;20110;53.120;5.786;2022-12-29T09:49:15;7.00;99.90
33803;DHT22;20110;53.120;5.786;2022-12-29T09:51:48;6.90;99.90
33803;DHT22;20110;53.120;5.786;2022-12-29T09:56:59;6.90;99.90
33803;DHT22;20110;53.120;5.786;2022-12-29T09:59:39;6.80;99.90
33803;DHT22;20110;53.120;5.786;2022-12-29T10:02:25;6.80;99.90
33803;DHT22;20110;53.120;5.786;2022-12-29T10:04:57;6.90;99.90
33803;DHT22;20110;53.120;5.786;2022-12-29T10:10:14;7.00;99.90
33803;DHT22;20110;53.120;5.786;2022-12-29T10:13:01;7.10;99.90
33803;DHT22;20110;53.120;5.786;2022-12-29T10:24:04;7.60;99.90
33803;DHT22;20110;53.120;5.786;2022-12-29T10:26:43;7.70;99.90
33803;DHT22;20110;53.120;5.786;2022-12-29T10:29:20;7.80;99.90
33803;DHT22;20110;53.120;5.786;2022-12-29T10:31:59;7.80;99.90
33803;DHT22;20110;53.120;5.786;2022-12-29T10:34:38;7.90;99.90
33803;DHT22;20110;53.120;5.786;2022-12-29T10:39:52;8.00;99.90
33803;DHT22;20110;53.120;5.786;2022-12-29T10:42:37;8.00;99.90
33803;DHT22;20110;53.120;5.786;2022-12-29T10:45:13;8.00;99.90
33803;DHT22;20110;53.120;5.786;2022-12-29T10:47:52;8.00;99.90
33803;DHT22;20110;53.120;5.786;2022-12-29T10:50:25;7.90;99.90
33803;DHT22;20110;53.120;5.786;2022-12-29T10:52:53;8.00;99.90
33803;DHT22;20110;53.120;5.786;2022-12-29T10:55:27;8.00;99.90
33803;DHT22;20110;53.120;5.786;2022-12-29T10:58:04;8.00;99.90
33803;DHT22;20110;53.120;5.786;2022-12-29T11:00:32;8.10;99.90
33803;DHT22;20110;53.120;5.786;2022-12-29T11:06:00;8.40;99.90
33803;DHT22;20110;53.120;5.786;2022-12-29T11:08:38;8.40;99.90
33803;DHT22;20110;53.120;5.786;2022-12-29T11:11:10;8.40;99.90
33803;DHT22;20110;53.120;5.786;2022-12-29T11:13:50;8.40;99.90
33803;DHT22;20110;53.120;5.786;2022-12-29T11:16:32;8.30;99.90
33803;DHT22;20110;53.120;5.786;2022-12-29T11:19:00;8.20;99.90
33803;DHT22;20110;53.120;5.786;2022-12-29T11:21:35;8.20;99.90
33803;DHT22;20110;53.120;5.786;2022-12-29T11:24:27;8.10;99.90
33803;DHT22;20110;53.120;5.786;2022-12-29T11:26:56;8.00;99.90
33803;DHT22;20110;53.120;5.786;2022-12-29T11:29:41;8.00;99.90
33803;DHT22;20110;53.120;5.786;2022-12-29T11:32:18;8.30;99.90
33803;DHT22;20110;53.120;5.786;2022-12-29T11:34:46;8.50;99.90
33803;DHT22;20110;53.120;5.786;2022-12-29T11:37:26;8.40;91.00
33803;DHT22;20110;53.120;5.786;2022-12-29T11:40:06;8.40;97.70
33803;DHT22;20110;53.120;5.786;2022-12-29T11:43:02;8.40;91.40
33803;DHT22;20110;53.120;5.786;2022-12-29T11:45:32;8.40;10.30
33803;DHT22;20110;53.120;5.786;2022-12-29T11:48:18;8.40;1.00
33803;DHT22;20110;53.120;5.786;2022-12-29T11:50:52;8.30;1.00
33803;DHT22;20110;53.120;5.786;2022-12-29T11:53:23;8.20;1.00
33803;DHT22;20110;53.120;5.786;2022-12-29T11:55:58;8.40;1.00
33803;DHT22;20110;53.120;5.786;2022-12-29T11:58:31;8.50;99.90
33803;DHT22;20110;53.120;5.786;2022-12-29T12:01:16;8.60;99.90
33803;DHT22;20110;53.120;5.786;2022-12-29T12:04:01;8.60;99.90
33803;DHT22;20110;53.120;5.786;2022-12-29T12:06:32;8.60;99.90
33803;DHT22;20110;53.120;5.786;2022-12-29T12:09:19;8.50;99.90
33803;DHT22;20110;53.120;5.786;2022-12-29T12:11:52;8.40;99.90
33803;DHT22;20110;53.120;5.786;2022-12-29T12:14:36;8.30;99.90
33803;DHT22;20110;53.120;5.786;2022-12-29T12:17:16;8.30;99.90
33803;DHT22;20110;53.120;5.786;2022-12-29T12:19:59;8.50;99.90
33803;DHT22;20110;53.120;5.786;2022-12-29T12:22:31;8.40;99.90
33803;DHT22;20110;53.120;5.786;2022-12-29T12:31:40;8.40;99.90
33803;DHT22;20110;53.120;5.786;2022-12-29T12:34:24;8.10;99.90
33803;DHT22;20110;53.120;5.786;2022-12-29T12:45:42;8.00;1.00
33803;DHT22;20110;53.120;5.786;2022-12-29T13:00:24;7.70;20.50
33803;DHT22;20110;53.120;5.786;2022-12-29T13:14:47;7.50;80.40
33803;DHT22;20110;53.120;5.786;2022-12-29T13:17:26;7.70;98.80
33803;DHT22;20110;53.120;5.786;2022-12-29T13:20:45;7.80;99.90
33803;DHT22;20110;53.120;5.786;2022-12-29T13:32:15;7.90;21.70
33803;DHT22;20110;53.120;5.786;2022-12-29T13:37:50;7.90;48.80
33803;DHT22;20110;53.120;5.786;2022-12-29T13:40:24;8.00;58.70
33803;DHT22;20110;53.120;5.786;2022-12-29T13:42:55;8.10;24.00
33803;DHT22;20110;53.120;5.786;2022-12-29T13:45:25;8.10;1.00
33803;DHT22;20110;53.120;5.786;2022-12-29T13:48:02;8.10;1.00
33803;DHT22;20110;53.120;5.786;2022-12-29T13:50:37;8.00;1.00
33803;DHT22;20110;53.120;5.786;2022-12-29T13:53:48;7.80;1.00
33803;DHT22;20110;53.120;5.786;2022-12-29T13:56:50;7.70;1.00
33803;DHT22;20110;53.120;5.786;2022-12-29T14:02:42;7.60;25.00
33803;DHT22;20110;53.120;5.786;2022-12-29T14:07:43;7.50;34.90
33803;DHT22;20110;53.120;5.786;2022-12-29T14:10:32;7.40;50.80
33803;DHT22;20110;53.120;5.786;2022-12-29T14:15:51;7.30;90.50
33803;DHT22;20110;53.120;5.786;2022-12-29T14:18:22;7.30;93.80
33803;DHT22;20110;53.120;5.786;2022-12-29T14:20:54;7.20;99.90
33803;DHT22;20110;53.120;5.786;2022-12-29T14:23:46;7.30;99.90
33803;DHT22;20110;53.120;5.786;2022-12-29T14:28:45;7.40;99.90
33803;DHT22;20110;53.120;5.786;2022-12-29T14:36:58;7.20;92.40
33803;DHT22;20110;53.120;5.786;2022-12-29T14:39:36;7.20;99.90
33803;DHT22;20110;53.120;5.786;2022-12-29T14:45:05;7.30;99.90
33803;DHT22;20110;53.120;5.786;2022-12-29T14:47:52;7.20;99.90
33803;DHT22;20110;53.120;5.786;2022-12-29T14:50:23;7.30;99.90
33803;DHT22;20110;53.120;5.786;2022-12-29T14:52:55;7.30;99.90
33803;DHT22;20110;53.120;5.786;2022-12-29T14:55:46;7.30;99.90
33803;DHT22;20110;53.120;5.786;2022-12-29T14:58:20;7.30;99.90
33803;DHT22;20110;53.120;5.786;2022-12-29T15:00:51;7.20;99.90
33803;DHT22;20110;53.120;5.786;2022-12-29T15:04:03;7.30;99.90
33803;DHT22;20110;53.120;5.786;2022-12-29T15:06:25;7.00;99.90
33803;DHT22;20110;53.120;5.786;2022-12-29T15:09:03;7.20;99.90
33803;DHT22;20110;53.120;5.786;2022-12-29T15:11:55;7.00;99.90
33803;DHT22;20110;53.120;5.786;2022-12-29T15:17:00;7.20;99.90
33803;DHT22;20110;53.120;5.786;2022-12-29T15:19:27;7.20;99.90
33803;DHT22;20110;53.120;5.786;2022-12-29T15:21:55;7.10;99.90
33803;DHT22;20110;53.120;5.786;2022-12-29T15:24:23;7.20;99.90
33803;DHT22;20110;53.120;5.786;2022-12-29T15:26:51;7.00;99.90
33803;DHT22;20110;53.120;5.786;2022-12-29T15:29:40;7.10;99.90
33803;DHT22;20110;53.120;5.786;2022-12-29T15:34:43;7.10;99.90
33803;DHT22;20110;53.120;5.786;2022-12-29T15:37:20;7.10;99.90
33803;DHT22;20110;53.120;5.786;2022-12-29T15:39:49;7.00;99.90
33803;DHT22;20110;53.120;5.786;2022-12-29T15:44:51;6.80;99.90
33803;DHT22;20110;53.120;5.786;2022-12-29T15:47:29;6.60;99.90
33803;DHT22;20110;53.120;5.786;2022-12-29T15:52:51;6.20;99.90
33803;DHT22;20110;53.120;5.786;2022-12-29T15:58:01;6.10;99.90
33803;DHT22;20110;53.120;5.786;2022-12-29T16:00:32;6.10;99.90
33803;DHT22;20110;53.120;5.786;2022-12-29T16:03:02;6.00;99.90
33803;DHT22;20110;53.120;5.786;2022-12-29T16:05:38;5.90;99.90
33803;DHT22;20110;53.120;5.786;2022-12-29T16:08:33;5.80;99.90
33803;DHT22;20110;53.120;5.786;2022-12-29T16:11:16;5.80;99.90
33803;DHT22;20110;53.120;5.786;2022-12-29T16:13:50;5.70;99.90
33803;DHT22;20110;53.120;5.786;2022-12-29T16:16:34;5.80;99.90
33803;DHT22;20110;53.120;5.786;2022-12-29T16:19:17;6.00;99.90
33803;DHT22;20110;53.120;5.786;2022-12-29T16:21:50;6.00;99.90
33803;DHT22;20110;53.120;5.786;2022-12-29T16:24:19;6.10;99.90
33803;DHT22;20110;53.120;5.786;2022-12-29T16:27:02;6.10;99.90
33803;DHT22;20110;53.120;5.786;2022-12-29T16:29:34;6.40;99.90
33803;DHT22;20110;53.120;5.786;2022-12-29T16:32:01;6.30;99.90
33803;DHT22;20110;53.120;5.786;2022-12-29T16:47:46;6.50;99.90
33803;DHT22;20110;53.120;5.786;2022-12-29T16:50:18;6.50;99.90
33803;DHT22;20110;53.120;5.786;2022-12-29T16:52:49;6.50;99.90
33803;DHT22;20110;53.120;5.786;2022-12-29T16:55:16;6.50;99.90
33803;DHT22;20110;53.120;5.786;2022-12-29T16:57:45;6.60;99.90
33803;DHT22;20110;53.120;5.786;2022-12-29T17:00:21;6.60;99.90
33803;DHT22;20110;53.120;5.786;2022-12-29T17:02:52;6.70;99.90
33803;DHT22;20110;53.120;5.786;2022-12-29T17:05:21;6.80;99.90
33803;DHT22;20110;53.120;5.786;2022-12-29T17:07:47;6.70;99.90
33803;DHT22;20110;53.120;5.786;2022-12-29T17:10:14;6.70;99.90
33803;DHT22;20110;53.120;5.786;2022-12-29T17:12:42;6.70;99.90
33803;DHT22;20110;53.120;5.786;2022-12-29T17:15:26;6.70;99.90
33803;DHT22;20110;53.120;5.786;2022-12-29T17:17:59;6.70;99.90
33803;DHT22;20110;53.120;5.786;2022-12-29T17:20:28;6.70;99.90
33803;DHT22;20110;53.120;5.786;2022-12-29T17:22:56;6.70;99.90
33803;DHT22;20110;53.120;5.786;2022-12-29T17:25:30;6.70;99.90
33803;DHT22;20110;53.120;5.786;2022-12-29T17:28:23;6.80;99.90
33803;DHT22;20110;53.120;5.786;2022-12-29T17:30:52;6.80;99.90
33803;DHT22;20110;53.120;5.786;2022-12-29T17:33:23;6.80;99.90
33803;DHT22;20110;53.120;5.786;2022-12-29T17:35:49;6.80;99.90
33803;DHT22;20110;53.120;5.786;2022-12-29T17:38:21;6.80;99.90
33803;DHT22;20110;53.120;5.786;2022-12-29T17:40:50;6.80;99.90
33803;DHT22;20110;53.120;5.786;2022-12-29T17:43:16;6.70;99.90
33803;DHT22;20110;53.120;5.786;2022-12-29T17:45:43;6.70;99.90
33803;DHT22;20110;53.120;5.786;2022-12-29T17:48:18;6.70;99.90
33803;DHT22;20110;53.120;5.786;2022-12-29T17:50:47;6.70;99.90
33803;DHT22;20110;53.120;5.786;2022-12-29T17:53:26;6.60;99.90
33803;DHT22;20110;53.120;5.786;2022-12-29T17:55:53;6.60;99.90
33803;DHT22;20110;53.120;5.786;2022-12-29T17:58:28;6.60;99.90
33803;DHT22;20110;53.120;5.786;2022-12-29T18:01:00;6.70;99.90
33803;DHT22;20110;53.120;5.786;2022-12-29T18:03:36;6.70;99.90
33803;DHT22;20110;53.120;5.786;2022-12-29T18:06:05;6.70;99.90
33803;DHT22;20110;53.120;5.786;2022-12-29T18:08:37;6.60;99.90
33803;DHT22;20110;53.120;5.786;2022-12-29T18:11:14;6.60;99.90
33803;DHT22;20110;53.120;5.786;2022-12-29T18:13:50;6.60;99.90
33803;DHT22;20110;53.120;5.786;2022-12-29T18:16:17;6.60;99.90
33803;DHT22;20110;53.120;5.786;2022-12-29T18:18:44;6.60;99.90
33803;DHT22;20110;53.120;5.786;2022-12-29T18:21:16;6.50;99.90
33803;DHT22;20110;53.120;5.786;2022-12-29T18:23:44;6.50;99.90
33803;DHT22;20110;53.120;5.786;2022-12-29T18:26:17;6.40;99.90
33803;DHT22;20110;53.120;5.786;2022-12-29T18:28:45;6.40;99.90
33803;DHT22;20110;53.120;5.786;2022-12-29T18:31:28;6.40;99.90
33803;DHT22;20110;53.120;5.786;2022-12-29T18:33:58;6.40;99.90
33803;DHT22;20110;53.120;5.786;2022-12-29T18:36:25;6.40;99.90
33803;DHT22;20110;53.120;5.786;2022-12-29T18:38:52;6.40;99.90
33803;DHT22;20110;53.120;5.786;2022-12-29T18:41:27;6.50;99.90
33803;DHT22;20110;53.120;5.786;2022-12-29T18:43:57;6.40;99.90
33803;DHT22;20110;53.120;5.786;2022-12-29T18:46:23;6.50;99.90
33803;DHT22;20110;53.120;5.786;2022-12-29T18:48:50;6.40;99.90
33803;DHT22;20110;53.120;5.786;2022-12-29T18:51:19;6.40;99.90
33803;DHT22;20110;53.120;5.786;2022-12-29T18:53:47;6.40;99.90